Date,TemperatureHighF,TemperatureAvgF,TemperatureLowF,DewpointHighF,DewpointAvgF,DewpointLowF,HumidityHigh,HumidityAvg,HumidityLow,PressureMaxIn,PressureMinIn,WindSpeedMaxMPH,WindSpeedAvgMPH,GustSpeedMaxMPH,PrecipitationSumIn
2013-1-1,44.6,40.0,32.5,42.8,38.2,25.2,97,93,74,29.83,29.62,8,3,15,0.00
2013-1-2,34.9,30.0,25.5,25.5,15.8,9.0,75,56,35,29.88,29.80,7,2,10,0.00
2013-1-3,42.1,31.6,21.9,23.9,15.9,9.9,82,55,29,30.03,29.88,7,1,10,0.00
2013-1-4,45.3,32.5,22.1,26.9,18.7,13.3,87,61,29,30.12,30.00,5,0,6,0.00
2013-1-5,47.1,37.3,25.9,32.0,23.9,18.2,86,61,33,30.00,29.88,8,2,10,0.00
2013-1-6,50.2,39.3,30.0,37.4,25.9,18.0,89,62,28,30.00,29.85,8,2,10,0.00
2013-1-7,50.4,35.3,23.0,24.5,16.6,10.5,80,51,24,30.03,29.83,8,1,9,0.00
2013-1-8,59.9,45.9,30.2,32.0,25.1,16.9,72,47,26,29.88,29.77,8,2,9,0.00
2013-1-9,55.2,53.7,50.7,53.6,50.1,33.8,96,88,46,29.94,29.83,6,2,8,0.00
2013-1-10,66.0,61.0,55.2,64.4,59.2,53.6,97,93,71,29.88,29.53,15,5,25,0.00
2013-1-11,66.4,60.0,53.2,60.8,47.9,33.8,94,68,32,29.68,29.56,11,5,15,0.00
2013-1-12,72.0,67.7,64.2,66.2,60.1,53.6,94,77,55,29.59,29.35,11,5,17,0.00
2013-1-13,69.3,44.5,30.2,59.0,39.9,20.6,96,85,57,29.85,29.38,14,6,19,0.00
2013-1-14,31.3,28.1,26.2,22.4,17.6,12.1,82,65,50,30.00,29.85,14,5,20,0.00
2013-1-15,31.8,28.1,25.2,26.7,22.7,19.3,85,80,77,29.85,29.68,8,3,14,0.00
2013-1-16,32.2,31.2,29.3,30.2,28.5,26.2,93,90,82,29.80,29.65,0,0,0,0.00
2013-1-17,46.6,35.5,28.9,33.8,27.0,21.5,93,73,38,30.09,29.74,9,2,15,0.00
2013-1-18,50.2,35.7,23.5,32.0,19.9,12.9,90,58,24,30.18,29.97,6,1,7,0.00
2013-1-19,56.1,43.3,33.4,25.0,21.9,18.8,68,45,25,29.97,29.80,11,4,15,0.00
2013-1-20,58.1,44.0,30.9,35.6,22.2,13.7,81,47,22,29.88,29.74,8,2,11,0.00
2013-1-21,42.1,33.9,24.3,19.5,9.8,3.8,56,38,23,29.94,29.77,11,4,17,0.00
2013-1-22,41.0,31.3,21.6,14.7,9.5,5.6,71,43,28,30.03,29.91,7,2,8,0.00
2013-1-23,54.0,40.0,25.5,33.8,20.1,8.8,72,47,29,29.94,29.77,6,1,8,0.00
2013-1-24,45.0,40.9,36.3,37.4,15.2,7.6,75,37,25,30.03,29.80,10,4,15,0.00
2013-1-25,49.6,40.2,31.3,46.4,27.8,10.8,90,65,28,29.85,29.68,8,2,11,0.00
2013-1-26,56.1,42.7,29.5,41.0,24.2,17.5,94,56,25,29.94,29.85,7,1,8,0.00
2013-1-27,64.8,55.0,47.1,46.4,33.4,22.4,66,45,35,29.88,29.74,9,4,12,0.00
2013-1-28,70.3,62.3,57.2,55.4,48.2,42.8,85,61,40,29.80,29.68,14,6,17,0.00
2013-1-29,75.0,67.1,57.9,59.0,51.3,42.8,91,60,33,29.68,29.12,19,8,30,0.00
2013-1-30,66.9,48.3,30.4,62.6,35.0,13.4,95,64,36,29.65,29.12,15,4,26,0.00
2013-1-31,52.2,39.0,26.2,26.8,18.3,14.3,77,46,26,29.94,29.65,12,4,17,0.00
2013-2-1,35.1,28.5,21.7,17.5,2.5,-2.0,51,33,22,30.15,29.91,8,3,12,0.00
2013-2-2,49.3,36.8,25.3,29.2,17.5,3.8,72,47,29,29.91,29.74,7,1,10,0.00
2013-2-3,53.6,41.5,32.4,29.9,20.3,10.7,80,47,21,29.80,29.74,10,2,13,0.00
2013-2-4,57.9,45.0,32.5,41.0,25.4,17.5,80,50,24,29.74,29.53,11,3,13,0.00
2013-2-5,61.9,50.0,37.4,46.4,36.2,26.4,87,63,27,29.68,29.53,7,1,9,0.00
2013-2-6,64.4,50.5,34.2,46.4,32.0,26.4,91,55,25,29.80,29.65,6,1,9,0.00
2013-2-7,68.7,58.5,50.4,50.0,37.6,26.6,81,47,33,29.65,29.50,8,2,11,0.00
2013-2-8,55.6,44.4,30.9,53.6,33.6,20.5,94,68,42,29.91,29.50,12,5,18,0.00
2013-2-9,56.3,42.4,27.3,33.8,23.7,18.5,92,54,25,29.91,29.68,6,2,10,0.00
2013-2-10,59.4,54.1,49.5,55.4,42.6,23.4,93,68,33,29.68,29.35,10,5,15,0.00
2013-2-11,55.2,49.1,43.0,53.6,27.3,17.1,93,46,25,29.80,29.56,6,1,8,0.00
2013-2-12,53.8,45.7,39.6,37.4,26.8,18.1,81,49,27,29.77,29.38,8,2,9,0.00
2013-2-13,44.6,40.4,34.3,41.0,33.9,26.8,97,79,51,29.65,29.35,7,1,13,0.00
2013-2-14,59.2,44.5,32.9,41.0,28.1,16.7,93,59,22,29.68,29.62,11,2,15,0.00
2013-2-15,54.0,43.1,32.0,33.8,22.7,11.5,85,49,21,29.80,29.65,8,2,11,0.00
2013-2-16,39.7,32.7,24.8,23.9,10.6,5.8,70,41,29,29.85,29.80,8,2,16,0.00
2013-2-17,53.1,41.1,26.8,19.3,14.6,10.0,54,36,21,29.88,29.68,10,4,13,0.00
2013-2-18,59.2,50.3,39.9,51.8,33.6,19.2,95,56,35,29.71,29.38,22,7,30,0.00
2013-2-19,48.4,39.7,26.8,39.2,18.1,9.0,76,44,22,29.88,29.56,9,2,13,0.00
2013-2-20,39.4,32.5,26.1,24.2,11.6,0.0,79,44,26,29.94,29.77,8,1,11,0.00
2013-2-21,46.9,39.3,30.6,44.6,27.1,11.5,96,66,27,29.77,29.35,8,3,14,0.00
2013-2-22,50.0,42.5,38.5,42.8,34.4,25.0,97,75,42,29.68,29.47,6,1,10,0.00
2013-2-23,49.6,38.9,29.3,29.2,19.8,15.0,75,49,27,29.65,29.56,8,3,11,0.00
2013-2-24,59.4,43.5,27.0,32.0,19.9,15.0,83,45,19,29.71,29.50,6,2,9,0.00
2013-2-25,60.1,52.0,41.9,53.6,28.9,13.4,93,44,26,29.50,28.91,12,5,21,0.00
2013-2-26,52.2,44.2,40.5,50.0,29.6,20.1,95,58,41,29.41,28.97,13,6,22,0.00
2013-2-27,49.8,42.3,37.8,24.9,21.2,16.7,55,43,31,29.56,29.41,9,2,13,0.00
2013-2-28,43.3,37.8,28.8,22.5,15.8,12.2,64,41,30,29.71,29.56,8,2,12,0.00
2013-3-1,37.9,34.7,28.6,23.1,17.8,13.5,67,50,40,29.74,29.68,6,2,10,0.00
2013-3-2,35.2,32.2,28.9,23.6,15.4,5.7,72,51,34,29.83,29.74,8,3,11,0.00
2013-3-3,46.6,33.5,20.1,20.3,12.1,6.8,76,44,22,29.83,29.68,7,1,9,0.00
2013-3-4,66.7,52.4,32.9,35.6,20.3,11.4,51,30,17,29.68,29.38,17,6,22,0.00
2013-3-5,61.2,49.2,37.6,55.4,28.8,9.4,88,48,27,29.77,29.38,14,6,18,0.00
2013-3-6,43.5,36.9,30.0,20.7,12.9,8.6,66,38,29,29.94,29.77,10,4,17,0.00
2013-3-7,51.6,39.8,28.4,23.1,18.6,14.8,73,45,26,29.97,29.85,7,2,9,0.00
2013-3-8,63.0,47.4,30.0,25.3,17.5,10.7,72,35,16,29.97,29.77,6,1,9,0.00
2013-3-9,70.7,59.9,51.1,24.4,19.7,12.6,26,21,17,29.77,29.53,13,4,16,0.00
2013-3-10,67.5,57.7,51.4,50.0,41.3,23.8,95,59,24,29.59,29.35,19,6,25,0.00
2013-3-11,51.6,41.7,31.5,50.0,26.8,17.9,95,59,33,29.65,29.41,6,1,11,0.00
2013-3-12,55.9,40.3,26.6,32.0,20.2,10.4,89,52,20,29.80,29.62,8,1,9,0.00
2013-3-13,49.8,41.8,29.8,24.7,14.7,9.2,58,34,24,30.00,29.80,9,2,14,0.00
2013-3-14,62.2,43.7,25.5,25.4,19.2,0.0,79,44,19,30.00,29.77,9,2,12,0.00
2013-3-15,74.5,59.5,44.8,35.6,30.5,21.9,50,35,23,29.77,29.50,15,6,21,0.00
2013-3-16,73.8,63.8,55.8,44.6,39.7,33.8,61,42,27,29.53,29.44,14,6,20,0.00
2013-3-17,73.2,63.3,54.1,51.8,41.5,35.6,72,47,27,29.50,29.29,12,4,13,0.00
2013-3-18,67.5,56.5,41.2,60.8,46.9,37.4,92,72,41,29.65,29.29,13,4,18,0.00
2013-3-19,59.7,46.3,32.5,44.6,23.8,8.9,95,52,17,29.80,29.62,9,2,14,0.00
2013-3-20,54.7,45.1,33.4,23.9,14.9,1.8,62,31,20,29.83,29.68,9,2,15,0.00
2013-3-21,50.5,39.4,27.0,21.2,8.2,-0.4,57,29,19,29.71,29.53,8,2,11,0.00
2013-3-22,48.6,42.3,34.3,42.8,36.7,21.5,92,81,59,29.59,29.47,6,2,11,0.00
2013-3-23,54.3,49.0,45.5,48.2,43.7,39.2,90,81,66,29.50,29.26,7,2,10,0.00
2013-3-24,51.4,45.6,35.8,51.8,34.3,13.6,97,69,38,29.56,29.18,9,3,22,0.00
2013-3-25,41.2,36.3,32.7,14.5,11.0,8.1,42,35,30,29.83,29.56,9,4,14,0.00
2013-3-26,46.9,36.7,27.5,16.0,13.0,10.3,60,39,27,29.94,29.83,9,2,13,0.00
2013-3-27,56.7,40.2,23.4,30.1,18.0,13.4,79,46,20,30.00,29.88,8,1,10,0.00
2013-3-28,68.0,49.8,31.1,33.8,22.7,15.2,78,40,17,29.94,29.83,8,1,10,0.00
2013-3-29,67.3,54.9,47.7,50.0,34.2,21.5,77,48,22,29.85,29.74,10,2,11,0.00
2013-3-30,59.4,54.7,51.6,55.4,49.5,42.8,94,82,57,29.77,29.53,6,1,9,0.00
2013-3-31,65.8,57.6,47.3,60.8,50.2,41.0,94,78,43,29.56,29.47,8,1,10,0.00
2013-4-1,67.6,54.3,41.7,51.8,35.3,26.1,92,56,23,29.71,29.53,9,2,11,0.00
2013-4-2,54.9,47.2,38.8,30.6,20.7,13.4,72,37,20,29.83,29.68,10,4,13,0.00
2013-4-3,49.5,43.6,40.6,41.0,24.2,11.7,87,50,24,29.80,29.68,8,3,15,0.00
2013-4-4,48.6,44.7,41.0,44.6,39.5,25.9,93,82,51,29.71,29.53,5,2,8,0.00
2013-4-5,73.6,52.5,42.1,44.6,31.7,16.4,96,56,16,29.77,29.62,7,1,9,0.00
2013-4-6,78.6,57.5,39.6,46.4,29.6,20.0,85,43,15,29.71,29.50,13,3,18,0.00
2013-4-7,74.3,63.3,51.1,42.8,37.1,28.2,57,39,23,29.65,29.50,13,4,15,0.00
2013-4-8,81.7,68.1,58.8,50.0,42.6,35.6,63,42,21,29.59,29.47,12,5,17,0.00
2013-4-9,82.6,72.7,63.7,57.2,51.0,44.6,72,48,30,29.59,29.47,12,6,19,0.00
2013-4-10,84.4,75.9,68.5,59.0,50.6,41.0,67,43,24,29.56,29.26,14,7,21,0.00
2013-4-11,75.2,53.3,41.0,64.4,50.2,39.2,96,90,38,29.47,29.29,13,1,19,0.00
2013-4-12,74.3,51.7,37.0,55.4,35.2,25.2,95,62,21,29.88,29.44,9,1,13,0.00
2013-4-13,81.0,57.3,42.3,41.0,32.3,23.0,87,46,15,30.74,29.65,7,1,9,0.00
2013-4-14,68.9,61.5,53.8,48.2,38.2,30.8,70,43,28,31.01,29.65,14,4,17,0.00
2013-4-15,88.5,67.1,53.4,55.4,48.6,41.0,90,56,21,31.01,30.09,9,4,14,0.00
2013-4-16,86.0,75.4,66.6,64.4,58.2,50.0,81,58,31,31.01,30.50,10,4,15,0.00
2013-4-17,87.3,75.7,66.2,69.8,57.6,46.4,92,58,28,31.01,30.92,11,4,15,0.00
2013-4-18,82.9,70.3,45.0,64.4,50.4,39.2,93,54,23,31.01,31.01,14,6,20,0.00
2013-4-19,58.8,46.3,38.7,42.8,24.8,17.2,91,46,25,31.01,31.01,8,2,14,0.00
2013-4-20,71.1,52.0,34.7,46.4,26.8,17.9,86,46,17,31.01,31.01,7,1,10,0.00
2013-4-21,72.7,57.7,42.6,33.8,24.0,18.0,62,30,14,31.01,31.01,9,2,11,0.00
2013-4-22,76.8,60.0,41.0,44.6,34.7,29.1,79,44,20,31.01,31.01,8,2,13,0.00
2013-4-23,76.5,65.8,55.6,53.6,47.4,39.2,78,54,31,31.01,31.01,12,4,17,0.00
2013-4-24,68.0,50.4,37.9,60.8,38.3,26.1,92,66,35,31.01,31.01,9,3,11,0.00
2013-4-25,70.7,50.2,32.2,48.2,29.6,20.0,92,55,17,31.01,29.94,7,1,9,0.00
2013-4-26,74.5,55.9,42.1,50.0,35.4,23.1,80,51,16,30.00,29.83,7,2,12,0.00
2013-4-27,77.2,63.8,52.9,66.2,51.8,37.4,91,66,41,29.83,29.50,10,2,14,0.00
2013-4-28,70.7,62.0,50.5,57.2,46.6,37.4,85,60,33,29.59,29.56,6,1,9,0.00
2013-4-29,82.6,62.6,44.6,60.8,44.1,35.6,92,58,20,29.65,29.50,6,1,8,0.00
2013-4-30,84.2,67.9,50.4,53.6,42.8,33.8,86,47,19,29.59,29.53,8,2,10,0.00
2013-5-1,82.4,70.4,62.6,57.2,48.8,42.8,72,48,30,29.68,29.56,8,2,14,0.00
2013-5-2,66.2,63.6,60.4,62.6,55.8,46.4,94,77,52,29.74,29.62,4,0,6,0.00
2013-5-3,62.1,48.6,36.1,60.8,46.8,33.8,95,93,87,29.62,29.50,6,1,10,0.00
2013-5-4,61.9,45.5,32.5,46.4,34.7,25.6,95,71,27,29.59,29.50,5,1,9,0.00
2013-5-5,60.8,50.1,43.3,46.4,39.6,26.9,97,72,30,29.56,29.50,7,1,10,0.00
2013-5-6,65.1,57.2,51.1,53.6,46.8,39.2,91,70,39,29.59,29.47,7,1,15,0.00
2013-5-7,80.4,63.0,48.0,59.0,45.7,35.6,96,60,22,29.65,29.56,6,1,8,0.00
2013-5-8,86.2,66.4,49.3,64.4,45.3,35.6,91,55,19,29.71,29.62,8,1,9,0.00
2013-5-9,82.0,70.0,57.6,57.2,49.1,41.0,86,52,25,29.71,29.59,11,3,16,0.00
2013-5-10,77.2,67.5,61.9,68.0,60.7,50.0,93,80,41,29.62,29.50,10,2,16,0.00
2013-5-11,76.8,65.6,56.5,62.6,48.2,32.0,96,60,22,29.68,29.53,8,2,11,0.00
2013-5-12,72.9,57.6,43.7,51.8,27.1,16.0,81,35,15,29.85,29.68,8,2,12,0.00
2013-5-13,83.7,60.1,40.5,46.4,34.9,26.5,84,46,18,29.91,29.77,8,1,10,0.00
2013-5-14,93.4,71.4,56.3,42.8,39.0,32.0,56,34,14,29.77,29.65,10,4,17,0.00
2013-5-15,85.8,72.8,60.3,44.6,39.8,32.0,54,32,19,29.77,29.59,12,4,17,0.00
2013-5-16,84.4,70.9,62.4,64.4,51.0,39.2,88,54,23,29.62,29.53,8,2,10,0.00
2013-5-17,86.7,70.4,64.6,69.8,59.5,50.0,92,71,32,29.59,29.50,8,2,10,0.00
2013-5-18,87.8,74.8,64.0,71.6,63.2,55.4,93,71,34,29.62,29.53,6,1,9,0.00
2013-5-19,92.5,78.8,69.8,69.8,58.3,44.6,91,56,24,29.62,29.50,9,4,13,0.00
2013-5-20,92.1,80.1,70.0,69.8,57.6,50.0,88,50,26,29.59,29.47,12,5,17,0.00
2013-5-21,80.6,70.7,63.3,69.8,63.7,50.0,95,79,49,29.59,29.38,8,2,13,0.00
2013-5-22,91.6,70.1,61.9,69.8,56.0,41.0,97,68,20,29.53,29.41,7,2,11,0.00
2013-5-23,87.1,71.7,60.4,68.0,51.0,37.4,93,55,20,29.74,29.53,6,1,8,0.00
2013-5-24,83.7,65.4,54.1,50.0,38.0,27.6,72,40,16,29.91,29.74,10,3,15,0.00
2013-5-25,83.5,66.8,48.9,53.6,41.0,32.0,87,45,16,29.91,29.77,5,1,8,0.00
2013-5-26,88.3,70.5,54.5,57.2,45.2,33.8,91,48,18,29.83,29.71,9,2,10,0.00
2013-5-27,90.9,74.6,62.1,59.0,49.7,39.2,71,46,18,29.74,29.62,10,3,14,0.00
2013-5-28,95.0,78.5,69.1,60.8,47.8,33.8,67,38,15,29.68,29.59,10,5,13,0.00
2013-5-29,92.1,77.9,63.9,57.2,49.8,39.2,66,40,19,29.68,29.56,9,4,13,0.00
2013-5-30,88.2,76.6,68.4,68.0,58.4,48.2,88,57,29,29.65,29.56,14,4,20,0.00
2013-5-31,93.9,78.5,70.5,68.0,62.3,53.6,87,61,27,29.62,29.47,9,4,17,0.00
2013-6-1,88.7,73.0,65.3,71.6,64.7,45.1,92,77,32,29.62,29.44,10,3,17,0.00
2013-6-2,81.0,71.6,64.2,66.2,57.1,46.4,94,64,32,29.59,29.53,6,1,8,0.00
2013-6-3,89.1,70.8,59.4,64.4,51.1,39.2,93,56,20,29.65,29.53,6,1,8,0.00
2013-6-4,93.4,74.5,58.8,60.8,51.1,39.2,91,50,20,29.65,29.53,4,0,6,0.00
2013-6-5,91.2,76.4,65.1,62.6,57.0,50.0,84,55,28,29.56,29.50,7,1,8,0.00
2013-6-6,84.9,74.3,65.7,70.6,57.8,48.2,94,61,30,29.47,29.38,6,1,12,0.00
2013-6-7,88.3,72.1,59.7,62.6,49.9,35.6,80,50,18,29.53,29.38,7,2,11,0.00
2013-6-8,97.0,72.8,55.9,64.4,45.6,33.8,92,48,13,29.62,29.50,6,1,10,0.00
2013-6-9,90.1,75.5,65.3,68.0,56.2,46.4,93,56,27,29.62,29.44,8,3,13,0.00
2013-6-10,97.2,79.0,66.6,78.8,58.7,42.8,95,58,21,29.56,29.50,10,3,15,0.00
2013-6-11,102.0,83.5,70.5,68.0,59.0,46.4,84,49,17,29.68,29.56,7,2,11,0.00
2013-6-12,98.2,84.1,70.9,71.6,61.1,51.8,89,51,24,29.68,29.56,8,3,11,0.00
2013-6-13,96.6,82.7,69.4,69.8,56.9,42.8,83,46,17,29.59,29.50,9,3,13,0.00
2013-6-14,93.2,75.5,63.5,66.2,49.1,35.6,92,48,17,29.68,29.56,10,1,13,0.00
2013-6-15,98.8,77.0,60.6,64.4,52.1,41.0,90,51,17,29.71,29.59,6,1,7,0.00
2013-6-16,93.2,78.1,67.5,68.0,59.4,50.0,86,57,27,29.68,29.56,7,1,11,0.00
2013-6-17,85.1,74.6,70.2,71.6,66.2,55.4,92,77,42,29.62,29.47,7,1,10,0.00
2013-6-18,83.5,73.9,68.4,71.6,62.0,46.4,96,71,29,29.62,29.47,8,1,11,0.00
2013-6-19,94.6,76.7,64.9,78.8,56.3,41.0,93,58,18,29.68,29.56,10,1,16,0.00
2013-6-20,100.0,80.0,64.9,71.6,56.3,42.8,92,54,16,29.77,29.65,5,1,6,0.00
2013-6-21,98.1,81.6,68.5,64.4,56.8,44.6,81,48,18,29.80,29.71,7,2,9,0.00
2013-6-22,97.0,80.5,67.5,68.0,56.7,46.4,87,50,19,29.77,29.65,7,2,9,0.00
2013-6-23,96.3,80.5,67.5,66.2,56.6,46.4,78,49,19,29.74,29.65,7,2,9,0.00
2013-6-24,96.8,82.7,70.0,69.8,60.8,48.2,90,53,22,29.77,29.65,7,2,9,0.00
2013-6-25,93.9,82.8,71.4,69.8,59.2,46.4,87,50,21,29.71,29.56,9,3,12,0.00
2013-6-26,98.4,83.8,71.8,69.8,58.7,48.2,84,47,20,29.65,29.50,11,4,15,0.00
2013-6-27,97.5,83.8,72.0,69.8,62.2,53.6,77,51,27,29.56,29.44,8,2,12,0.00
2013-6-28,97.5,76.8,70.2,75.2,64.6,48.2,93,71,21,29.59,29.35,12,1,17,0.00
2013-6-29,96.1,77.6,65.5,69.8,53.6,37.4,92,53,16,29.41,29.32,8,1,10,0.00
2013-6-30,85.1,71.4,61.9,64.4,53.3,42.8,91,57,25,29.47,29.32,7,2,10,0.00
2013-7-1,84.0,70.0,63.0,64.4,56.8,46.4,93,66,30,29.56,29.44,8,1,12,0.00
2013-7-2,88.0,71.8,58.6,66.2,52.2,39.2,93,56,23,29.68,29.53,6,1,8,0.00
2013-7-3,92.1,72.3,60.3,64.4,53.1,37.4,93,58,18,29.71,29.65,5,1,8,0.00
2013-7-4,87.4,75.1,62.4,68.0,57.7,48.2,91,60,26,29.68,29.56,6,1,10,0.00
2013-7-5,88.3,74.8,64.2,69.8,59.9,50.0,93,66,28,29.71,29.59,7,2,13,0.00
2013-7-6,92.5,77.4,64.8,75.2,59.7,48.2,95,61,24,29.71,29.59,7,1,9,0.00
2013-7-7,97.3,79.6,68.7,71.6,60.5,48.2,92,58,19,29.74,29.65,7,1,10,0.00
2013-7-8,98.1,81.2,70.2,71.6,62.4,51.8,93,58,21,29.80,29.68,5,1,8,0.00
2013-7-9,99.9,83.7,71.8,73.4,61.8,50.0,91,54,19,29.77,29.65,7,2,11,0.00
2013-7-10,97.2,83.0,74.1,75.2,64.9,55.4,84,57,27,29.68,29.50,6,2,8,0.00
2013-7-11,97.7,83.9,72.7,69.8,58.6,46.4,85,47,18,29.59,29.50,8,2,12,0.00
2013-7-12,92.8,76.6,63.3,57.2,48.8,39.2,77,41,18,29.65,29.56,9,2,13,0.00
2013-7-13,94.3,74.6,61.3,57.2,48.7,39.2,81,46,17,29.65,29.56,8,2,13,0.00
2013-7-14,91.2,77.7,66.2,68.0,57.2,50.0,81,53,27,29.71,29.59,6,2,10,0.00
2013-7-15,94.5,80.3,72.0,69.8,62.6,53.6,86,58,27,29.80,29.68,8,2,12,0.00
2013-7-16,96.1,82.7,71.8,69.8,60.0,50.0,82,51,23,29.88,29.80,7,1,10,0.00
2013-7-17,101.5,83.2,69.3,71.6,59.6,46.4,91,53,17,29.91,29.77,6,1,8,0.00
2013-7-18,94.6,78.9,70.2,73.4,65.0,53.6,90,66,28,29.83,29.68,8,1,13,0.00
2013-7-19,97.2,78.9,68.2,71.6,61.2,50.0,93,61,21,29.71,29.56,7,2,9,0.00
2013-7-20,100.8,82.0,68.5,71.6,59.9,48.2,92,54,18,29.62,29.47,9,2,11,0.00
2013-7-21,93.9,82.2,71.8,71.6,60.0,46.4,91,53,21,29.62,29.50,9,2,14,0.00
2013-7-22,85.8,76.7,68.4,73.4,65.9,55.4,94,70,35,29.62,29.50,11,3,18,0.00
2013-7-23,89.1,76.6,69.4,73.4,68.4,57.2,94,78,35,29.62,29.47,8,1,14,0.00
2013-7-24,90.7,78.9,73.0,77.0,63.5,50.0,95,64,30,29.59,29.47,7,1,10,0.00
2013-7-25,83.3,73.9,64.8,62.6,52.1,39.2,88,51,23,29.71,29.59,9,2,12,0.00
2013-7-26,84.4,72.7,59.9,68.0,55.6,41.0,93,60,24,29.71,29.59,4,0,6,0.00
2013-7-27,90.1,70.8,67.8,66.2,63.3,51.8,90,79,30,29.62,29.53,5,0,8,0.00
2013-7-28,83.3,72.9,65.8,66.2,55.9,44.6,92,60,30,29.68,29.56,6,1,9,0.00
2013-7-29,81.0,67.4,64.4,59.0,55.4,44.6,80,66,28,29.77,29.68,4,0,5,0.00
2013-7-30,91.4,81.8,72.7,64.4,58.2,51.8,65,46,28,29.77,29.65,8,2,10,0.00
2013-7-31,92.8,79.3,72.9,73.4,65.2,55.4,91,64,31,29.68,29.56,7,1,11,0.00
2013-8-2,73.8,72.0,70.5,66.2,64.1,62.6,82,76,69,29.62,29.59,0,0,0,0.00
2013-8-3,88.0,77.1,70.3,68.0,63.8,57.2,89,65,35,29.68,29.56,8,1,10,0.00
2013-8-4,90.9,78.6,66.9,75.2,60.4,46.4,94,60,24,29.74,29.65,7,1,11,0.00
2013-8-5,88.2,76.1,69.3,73.4,64.9,53.6,91,70,32,29.68,29.56,9,1,12,0.00
2013-8-9,96.3,87.6,72.1,71.6,60.3,44.6,91,45,19,29.65,29.56,7,1,10,0.00
2013-8-10,92.5,81.0,73.2,75.2,64.6,51.8,92,62,27,29.74,29.65,10,1,13,0.00
2013-8-11,90.3,78.3,72.7,73.4,67.7,55.4,92,74,34,29.74,29.68,9,1,11,0.00
2013-8-13,84.9,76.2,73.0,69.7,63.7,53.6,85,67,36,29.68,29.56,6,1,8,0.00
2013-8-14,80.2,72.1,61.7,66.2,49.2,35.6,76,48,22,29.71,29.59,10,4,14,0.00
2013-8-15,84.6,67.6,55.6,55.4,46.7,35.6,89,53,20,29.71,29.62,8,2,10,0.00
2013-8-16,84.9,70.7,59.2,62.6,54.1,44.6,89,61,26,29.68,29.62,5,1,6,0.00
2013-8-17,82.8,72.6,64.8,66.2,56.8,46.4,92,61,29,29.71,29.62,6,1,8,0.00
2013-8-18,85.6,72.1,64.4,69.8,60.2,48.2,92,71,29,29.74,29.68,5,1,8,0.00
2013-8-21,87.3,73.6,0.0,69.8,60.4,0.0,92,60,30,29.74,29.68,4,0,6,0.00
2013-8-22,93.7,78.7,70.0,73.4,64.1,46.2,94,68,21,29.77,29.65,7,0,9,0.00
2013-8-23,91.6,73.2,67.8,71.6,65.0,48.2,96,80,23,29.71,29.62,3,0,5,0.00
2013-8-24,94.6,80.1,70.0,73.4,62.3,42.8,92,64,18,29.77,29.65,8,1,13,0.00
2013-8-25,95.7,79.0,71.4,71.6,60.7,42.8,93,61,18,29.88,29.77,6,1,9,0.00
2013-8-26,92.3,78.2,68.2,68.0,55.6,42.8,91,53,18,29.88,29.77,5,1,8,0.00
2013-8-27,94.5,79.1,63.5,66.2,53.2,41.0,90,47,18,29.80,29.68,6,1,8,0.00
2013-8-28,96.6,78.2,63.5,68.0,53.3,41.0,92,52,16,29.74,29.65,6,1,8,0.00
2013-8-29,95.4,80.3,73.4,66.2,61.2,46.4,79,56,20,29.62,29.59,4,0,4,0.00
2013-8-30,98.4,81.6,68.5,73.4,57.9,42.8,92,54,17,29.65,29.50,8,1,11,0.00
2013-8-31,97.5,79.0,69.8,68.0,60.3,44.6,86,59,18,29.56,29.44,6,0,9,0.00
2013-9-1,96.8,81.0,71.8,68.0,60.2,44.6,78,53,19,29.53,29.44,14,2,23,0.00
2013-9-2,91.8,81.2,73.4,68.0,60.7,51.8,82,53,28,29.59,29.47,8,2,13,0.00
2013-9-3,90.1,78.7,69.6,69.8,53.8,39.2,92,52,19,29.65,29.53,9,2,14,0.00
2013-9-4,89.6,78.3,60.4,69.8,48.8,37.4,93,42,19,29.74,29.68,9,2,11,0.00
2013-9-5,90.5,76.7,61.9,66.2,51.3,41.0,90,49,18,29.77,29.71,8,2,11,0.00
2013-9-6,81.3,73.8,69.1,60.8,55.2,46.4,72,53,31,29.68,29.65,0,0,4,0.00
2013-9-7,93.9,79.0,64.2,66.2,53.0,42.8,88,48,17,29.71,29.59,7,1,8,0.00
2013-9-8,98.1,81.3,66.9,64.4,53.9,41.0,82,46,16,29.62,29.53,6,1,8,0.00
2013-9-9,92.8,79.2,71.4,71.6,59.6,50.0,72,53,23,29.68,29.56,6,1,9,0.00
2013-9-10,100.2,81.7,72.3,68.0,58.7,42.8,80,51,16,29.77,29.65,8,2,12,0.00
2013-9-11,93.0,76.3,71.6,71.6,64.4,46.4,90,70,22,29.80,29.68,4,0,5,0.00
2013-9-12,96.3,78.0,69.1,71.6,60.4,42.8,93,63,17,29.71,29.56,8,1,12,0.00
2013-9-13,83.7,72.8,60.4,69.8,48.6,30.8,93,50,16,29.65,29.56,9,3,14,0.00
2013-9-14,81.0,64.0,51.3,53.6,38.6,27.4,84,45,17,29.71,29.62,10,2,15,0.00
2013-9-15,81.0,56.9,49.1,60.8,45.8,33.8,90,72,20,29.74,29.65,5,1,8,0.00
2013-9-17,91.8,81.0,64.4,66.2,48.3,39.2,90,37,17,29.77,29.65,7,1,10,0.00
2013-9-18,88.0,77.7,68.7,66.2,57.1,51.8,82,52,29,29.74,29.62,8,3,9,0.00
2013-9-19,93.4,82.3,67.6,71.6,51.5,41.0,92,39,18,29.74,29.59,8,3,10,0.00
2013-9-20,82.4,73.7,69.8,71.6,62.5,51.8,93,70,43,29.62,29.44,8,2,9,0.00
2013-9-21,75.4,67.1,55.2,62.6,42.5,31.1,94,46,21,29.53,29.47,12,4,16,0.00
2013-9-22,76.6,63.7,51.3,57.2,42.1,32.0,93,55,21,29.56,29.47,8,2,13,0.00
2013-9-23,52.9,52.7,52.5,50.0,49.4,48.2,88,87,86,29.56,29.53,0,0,0,0.00
2013-9-28,82.4,73.7,63.1,55.4,45.7,37.4,72,41,22,29.74,29.65,7,0,11,0.00
2013-9-29,72.9,65.9,63.0,62.6,55.3,48.2,92,70,43,29.68,29.56,3,0,5,0.00
2013-9-30,66.0,65.4,64.8,64.4,63.6,62.6,93,93,92,29.59,29.56,2,0,4,0.00
2013-10-1,67.3,66.3,66.0,62.6,61.0,60.8,84,83,82,29.65,29.65,0,0,0,0.00
2013-11-5,71.2,62.8,53.6,39.2,35.4,29.1,51,37,25,29.91,29.77,8,4,13,0.00
2013-11-6,64.0,58.2,48.2,59.0,45.6,35.6,94,65,43,29.80,29.65,10,4,15,0.00
2013-11-7,54.1,45.5,34.5,29.4,23.2,17.5,80,46,25,30.00,29.94,9,2,15,0.00
2013-11-8,59.9,44.6,30.7,46.4,29.2,21.5,92,61,24,30.00,29.83,6,1,8,0.00
2013-11-9,63.0,50.9,40.8,41.0,32.1,23.8,77,52,24,29.91,29.80,6,1,10,0.00
2013-11-10,67.1,52.1,41.2,48.2,35.0,26.1,90,57,24,29.97,29.88,8,1,13,0.00
2013-11-11,68.2,51.7,37.2,44.6,33.4,26.6,85,56,23,29.91,29.77,5,1,8,0.00
2013-11-12,53.1,40.5,29.5,48.2,21.6,8.4,85,49,29,30.27,29.83,16,6,24,0.00
2013-11-13,46.8,33.4,23.9,17.7,12.8,8.1,70,45,22,30.30,30.06,6,2,10,0.00
2013-11-14,57.2,39.1,23.7,26.4,15.7,8.0,79,45,17,30.06,29.77,9,2,13,0.00
2013-11-15,60.4,50.1,41.2,50.0,36.8,17.1,87,62,38,29.80,29.62,6,1,8,0.00
2013-11-16,67.8,59.3,52.7,62.6,54.7,50.0,91,84,64,29.68,29.50,10,4,13,0.00
2013-11-17,75.2,67.9,52.9,68.0,60.4,33.8,93,77,40,29.62,29.35,13,6,18,0.00
2013-11-18,56.7,47.8,40.3,44.6,34.3,23.6,80,61,29,29.80,29.62,8,1,11,0.00
2013-11-19,54.1,44.3,32.0,32.0,18.3,12.7,75,38,20,29.91,29.77,8,2,11,0.00
2013-11-20,61.7,45.6,29.3,35.6,25.5,22.4,85,50,25,29.80,29.68,9,2,11,0.00
2013-11-21,69.6,60.4,49.1,57.2,46.5,33.8,94,63,36,29.83,29.74,9,4,13,0.00
2013-11-22,60.6,54.4,44.6,59.0,52.1,35.6,95,92,73,30.00,29.80,12,4,17,0.00
2013-11-23,46.6,39.2,29.3,39.2,12.0,4.3,92,33,26,30.15,29.97,14,7,23,0.00
2013-11-24,37.2,29.4,22.1,7.2,4.3,2.2,46,35,24,30.24,30.03,14,5,26,0.00
2013-11-25,37.2,34.5,31.3,33.8,21.8,3.9,93,64,31,30.03,29.74,5,1,8,0.00
2013-11-26,39.4,36.3,33.4,37.4,30.2,15.2,97,80,41,29.74,29.53,10,5,17,0.00
2013-11-27,33.1,26.8,19.2,8.5,4.4,1.2,62,39,30,30.00,29.80,11,4,18,0.00
2013-11-28,42.6,29.0,16.9,17.7,10.6,7.0,73,50,23,30.09,30.00,7,1,10,0.00
2013-11-29,53.6,36.9,24.4,26.5,18.1,13.6,76,50,23,30.18,30.03,6,1,6,0.00
2013-11-30,58.1,38.5,26.8,32.0,20.3,15.2,79,53,19,30.06,29.83,9,2,12,0.00
2013-12-1,61.2,50.1,37.0,28.9,23.8,17.1,49,36,27,29.83,29.56,8,2,10,0.00
2013-12-2,62.4,54.5,48.6,48.2,40.9,28.9,81,61,42,29.56,29.35,5,0,7,0.00
2013-12-3,60.4,55.3,49.1,57.2,51.8,44.6,93,88,76,29.38,29.29,5,1,8,0.00
2013-12-4,74.8,66.4,58.3,64.4,54.7,46.4,94,69,35,29.47,29.32,17,5,23,0.00
2013-12-5,67.1,50.9,34.7,62.6,45.0,31.0,94,81,60,29.71,29.47,11,5,16,0.00
2013-12-6,33.3,30.4,25.3,32.0,28.9,22.5,96,94,89,30.03,29.71,9,2,16,0.00
2013-12-7,30.0,25.3,22.3,26.4,20.8,16.9,89,83,77,30.15,29.94,0,0,0,0.00
2013-12-8,34.9,33.4,32.2,33.8,31.6,29.6,97,94,90,29.83,29.68,6,0,9,0.00
2013-12-9,33.8,32.2,30.9,33.8,26.9,18.3,98,82,55,29.88,29.77,8,4,11,0.00
2013-12-10,34.9,28.7,22.8,26.5,19.0,13.9,86,67,52,30.06,29.80,5,1,8,0.00
2013-12-11,45.1,31.7,20.5,33.8,17.9,13.5,84,60,29,30.15,30.00,8,2,11,0.00
2013-12-12,42.4,31.6,19.6,13.6,8.6,2.8,67,41,21,30.21,30.00,5,1,7,0.00
2013-12-13,49.8,36.0,23.5,33.8,15.6,9.9,87,47,22,30.00,29.56,9,2,15,0.00
2013-12-14,45.3,40.2,35.6,42.8,29.5,20.1,95,67,53,29.74,29.44,8,3,13,0.00
2013-12-15,38.7,33.4,28.8,22.8,18.5,14.8,77,55,41,29.88,29.74,9,3,13,0.00
2013-12-16,55.9,41.6,28.9,37.4,25.4,21.3,88,57,27,29.85,29.74,11,6,17,0.00
2013-12-17,59.7,43.3,30.9,29.7,23.7,21.0,71,48,25,29.91,29.77,8,3,11,0.00
2013-12-18,56.8,42.4,27.3,32.0,22.5,17.2,83,51,25,29.97,29.74,9,3,12,0.00
2013-12-19,59.4,49.7,41.2,41.0,31.2,25.5,56,49,43,29.77,29.59,11,5,15,0.00
2013-12-20,68.0,63.4,58.1,60.8,51.7,41.0,84,66,50,29.62,29.44,13,7,18,0.00
2013-12-21,76.5,68.1,59.7,60.8,53.6,46.4,92,62,36,29.44,29.12,19,9,31,0.00
2013-12-22,59.4,50.5,37.4,57.2,43.2,20.4,96,77,50,29.85,29.29,8,3,14,0.00
2013-12-23,37.6,33.5,24.8,20.5,14.8,10.5,73,47,34,30.12,29.85,10,4,18,0.00
2013-12-24,34.7,27.4,22.6,18.7,10.3,2.0,77,52,27,30.21,30.03,9,2,13,0.00
2013-12-25,46.9,37.7,21.0,16.2,12.6,9.2,65,37,24,30.03,29.91,8,2,9,0.00
2013-12-26,46.8,34.3,25.5,27.6,15.9,9.4,78,50,24,30.03,29.94,8,2,14,0.00
2013-12-27,53.8,36.3,23.4,30.8,16.6,10.6,79,50,20,30.09,29.97,6,1,8,0.00
2013-12-28,48.0,38.8,28.9,37.4,27.3,17.0,88,65,36,29.97,29.59,4,0,8,0.00
2013-12-29,56.8,45.0,36.3,48.2,32.9,19.5,95,67,34,29.80,29.56,9,2,13,0.00
2013-12-30,36.1,31.7,28.9,21.0,16.5,12.0,59,53,46,29.97,29.80,9,3,14,0.00
2013-12-31,45.3,31.7,21.7,28.4,17.2,13.6,82,58,30,30.09,29.91,8,1,8,0.00
2014-1-1,52.0,39.5,24.3,35.6,23.3,17.2,86,57,27,29.91,29.56,9,3,11,0.00
2014-1-2,51.4,34.8,21.4,46.4,18.1,1.6,84,52,34,30.06,29.50,14,6,24,0.00